sensor_id;sensor_type;location;lat;lon;timestamp;pressure;altitude;pressure_sealevel;temperature;humidity
39491;BME280;25175;50.140;18.990;2022-07-29T00:00:21;98752.84;;;17.52;53.99
39491;BME280;25175;50.140;18.990;2022-07-29T00:03:23;98764.16;;;17.47;54.27
39491;BME280;25175;50.140;18.990;2022-07-29T00:06:27;98757.47;;;17.45;54.26
39491;BME280;25175;50.140;18.990;2022-07-29T00:09:29;98753.59;;;17.36;54.40
39491;BME280;25175;50.140;18.990;2022-07-29T00:12:31;98755.06;;;17.27;54.52
39491;BME280;25175;50.140;18.990;2022-07-29T00:15:33;98753.69;;;17.24;54.69
39491;BME280;25175;50.140;18.990;2022-07-29T00:18:35;98759.22;;;17.23;54.50
39491;BME280;25175;50.140;18.990;2022-07-29T00:21:39;98754.13;;;17.21;54.92
39491;BME280;25175;50.140;18.990;2022-07-29T00:24:41;98751.41;;;17.16;54.63
39491;BME280;25175;50.140;18.990;2022-07-29T00:27:43;98747.38;;;17.14;54.72
39491;BME280;25175;50.140;18.990;2022-07-29T00:30:46;98746.31;;;17.15;54.76
39491;BME280;25175;50.140;18.990;2022-07-29T00:33:48;98743.94;;;17.13;54.51
39491;BME280;25175;50.140;18.990;2022-07-29T00:36:52;98746.50;;;17.08;54.51
39491;BME280;25175;50.140;18.990;2022-07-29T00:39:53;98743.53;;;17.05;54.86
39491;BME280;25175;50.140;18.990;2022-07-29T00:42:55;98747.44;;;17.02;54.92
39491;BME280;25175;50.140;18.990;2022-07-29T00:45:57;98736.03;;;17.02;54.86
39491;BME280;25175;50.140;18.990;2022-07-29T00:48:59;98747.44;;;17.02;54.82
39491;BME280;25175;50.140;18.990;2022-07-29T00:52:03;98737.63;;;17.03;54.62
39491;BME280;25175;50.140;18.990;2022-07-29T00:55:08;98741.00;;;16.98;54.58
39491;BME280;25175;50.140;18.990;2022-07-29T00:58:12;98740.69;;;16.95;54.58
39491;BME280;25175;50.140;18.990;2022-07-29T01:01:15;98728.38;;;16.89;54.56
39491;BME280;25175;50.140;18.990;2022-07-29T01:04:17;98725.41;;;16.86;54.34
39491;BME280;25175;50.140;18.990;2022-07-29T01:07:20;98720.25;;;16.79;54.16
39491;BME280;25175;50.140;18.990;2022-07-29T01:10:23;98721.75;;;16.75;54.03
39491;BME280;25175;50.140;18.990;2022-07-29T01:13:26;98717.16;;;16.71;54.10
39491;BME280;25175;50.140;18.990;2022-07-29T01:16:31;98723.25;;;16.71;53.85
39491;BME280;25175;50.140;18.990;2022-07-29T01:19:47;98723.03;;;16.73;53.83
39491;BME280;25175;50.140;18.990;2022-07-29T01:23:08;98721.66;;;16.70;53.65
39491;BME280;25175;50.140;18.990;2022-07-29T01:26:29;98720.47;;;16.66;53.37
39491;BME280;25175;50.140;18.990;2022-07-29T01:29:36;98720.03;;;16.69;53.37
39491;BME280;25175;50.140;18.990;2022-07-29T01:32:40;98715.81;;;16.68;53.20
39491;BME280;25175;50.140;18.990;2022-07-29T01:35:45;98726.59;;;16.67;53.02
39491;BME280;25175;50.140;18.990;2022-07-29T01:39:05;98712.78;;;16.64;53.04
39491;BME280;25175;50.140;18.990;2022-07-29T01:42:14;98717.03;;;16.65;52.69
39491;BME280;25175;50.140;18.990;2022-07-29T01:45:21;98705.31;;;16.61;52.78
39491;BME280;25175;50.140;18.990;2022-07-29T01:48:31;98710.03;;;16.59;52.54
39491;BME280;25175;50.140;18.990;2022-07-29T01:51:41;98703.16;;;16.58;52.76
39491;BME280;25175;50.140;18.990;2022-07-29T01:54:50;98703.28;;;16.52;52.79
39491;BME280;25175;50.140;18.990;2022-07-29T01:57:56;98700.28;;;16.48;52.80
39491;BME280;25175;50.140;18.990;2022-07-29T02:01:01;98705.91;;;16.52;52.74
39491;BME280;25175;50.140;18.990;2022-07-29T02:04:06;98703.59;;;16.55;52.80
39491;BME280;25175;50.140;18.990;2022-07-29T02:07:12;98703.16;;;16.58;52.81
39491;BME280;25175;50.140;18.990;2022-07-29T02:10:16;98700.25;;;16.60;52.54
39491;BME280;25175;50.140;18.990;2022-07-29T02:13:21;98707.16;;;16.61;52.34
39491;BME280;25175;50.140;18.990;2022-07-29T02:16:28;98706.34;;;16.60;52.19
39491;BME280;25175;50.140;18.990;2022-07-29T02:19:32;98703.94;;;16.59;52.16
39491;BME280;25175;50.140;18.990;2022-07-29T02:22:37;98701.06;;;16.60;52.13
39491;BME280;25175;50.140;18.990;2022-07-29T02:25:41;98702.88;;;16.60;52.05
39491;BME280;25175;50.140;18.990;2022-07-29T02:28:45;98704.75;;;16.59;52.21
39491;BME280;25175;50.140;18.990;2022-07-29T02:31:50;98713.47;;;16.60;52.17
39491;BME280;25175;50.140;18.990;2022-07-29T02:34:53;98695.78;;;16.60;52.15
39491;BME280;25175;50.140;18.990;2022-07-29T02:37:56;98700.25;;;16.60;52.14
39491;BME280;25175;50.140;18.990;2022-07-29T02:41:20;98697.84;;;16.58;52.08
39491;BME280;25175;50.140;18.990;2022-07-29T02:44:25;98683.94;;;16.51;51.87
39491;BME280;25175;50.140;18.990;2022-07-29T02:47:34;98682.81;;;16.48;52.10
39491;BME280;25175;50.140;18.990;2022-07-29T02:50:43;98676.38;;;16.43;51.97
39491;BME280;25175;50.140;18.990;2022-07-29T02:53:49;98678.81;;;16.33;51.82
39491;BME280;25175;50.140;18.990;2022-07-29T02:56:53;98688.03;;;16.31;52.02
39491;BME280;25175;50.140;18.990;2022-07-29T02:59:59;98681.69;;;16.32;52.00
39491;BME280;25175;50.140;18.990;2022-07-29T03:03:09;98682.72;;;16.31;51.79
39491;BME280;25175;50.140;18.990;2022-07-29T03:06:14;98673.19;;;16.30;51.89
39491;BME280;25175;50.140;18.990;2022-07-29T03:09:17;98677.44;;;16.31;51.84
39491;BME280;25175;50.140;18.990;2022-07-29T03:12:20;98659.41;;;16.28;51.90
39491;BME280;25175;50.140;18.990;2022-07-29T03:15:23;98667.34;;;16.28;52.09
39491;BME280;25175;50.140;18.990;2022-07-29T03:18:27;98673.66;;;16.27;52.22
39491;BME280;25175;50.140;18.990;2022-07-29T03:21:30;98673.19;;;16.30;52.34
39491;BME280;25175;50.140;18.990;2022-07-29T03:24:34;98677.66;;;16.29;52.56
39491;BME280;25175;50.140;18.990;2022-07-29T03:27:36;98678.25;;;16.32;52.72
39491;BME280;25175;50.140;18.990;2022-07-29T03:30:39;98681.47;;;16.33;52.63
39491;BME280;25175;50.140;18.990;2022-07-29T03:33:42;98683.06;;;16.34;52.45
39491;BME280;25175;50.140;18.990;2022-07-29T03:36:45;98676.19;;;16.33;52.68
39491;BME280;25175;50.140;18.990;2022-07-29T03:39:48;98680.66;;;16.33;52.68
39491;BME280;25175;50.140;18.990;2022-07-29T03:42:52;98677.78;;;16.34;52.80
39491;BME280;25175;50.140;18.990;2022-07-29T03:45:57;98685.16;;;16.33;52.69
39491;BME280;25175;50.140;18.990;2022-07-29T03:49:03;98687.78;;;16.33;52.95
39491;BME280;25175;50.140;18.990;2022-07-29T03:52:08;98683.78;;;16.30;53.01
39491;BME280;25175;50.140;18.990;2022-07-29T03:55:11;98692.03;;;16.33;53.21
39491;BME280;25175;50.140;18.990;2022-07-29T03:58:14;98684.59;;;16.31;53.09
39491;BME280;25175;50.140;18.990;2022-07-29T04:01:18;98689.63;;;16.32;53.21
39491;BME280;25175;50.140;18.990;2022-07-29T04:04:23;98682.50;;;16.33;53.20
39491;BME280;25175;50.140;18.990;2022-07-29T04:07:25;98681.47;;;16.33;53.08
39491;BME280;25175;50.140;18.990;2022-07-29T04:10:27;98680.41;;;16.34;52.97
39491;BME280;25175;50.140;18.990;2022-07-29T04:13:29;98690.44;;;16.33;53.09
39491;BME280;25175;50.140;18.990;2022-07-29T04:16:32;98689.28;;;16.28;53.25
39491;BME280;25175;50.140;18.990;2022-07-29T04:19:36;98687.69;;;16.27;53.53
39491;BME280;25175;50.140;18.990;2022-07-29T04:22:38;98691.72;;;16.30;53.49
39491;BME280;25175;50.140;18.990;2022-07-29T04:25:40;98681.94;;;16.31;53.61
39491;BME280;25175;50.140;18.990;2022-07-29T04:28:43;98678.81;;;16.33;53.55
39491;BME280;25175;50.140;18.990;2022-07-29T04:31:45;98677.09;;;16.39;53.89
39491;BME280;25175;50.140;18.990;2022-07-29T04:34:49;98676.63;;;16.42;53.89
39491;BME280;25175;50.140;18.990;2022-07-29T04:37:51;98678.53;;;16.46;53.79
39491;BME280;25175;50.140;18.990;2022-07-29T04:40:53;98678.66;;;16.51;53.97
39491;BME280;25175;50.140;18.990;2022-07-29T04:43:55;98667.13;;;16.57;53.91
39491;BME280;25175;50.140;18.990;2022-07-29T04:46:57;98660.09;;;16.63;53.97
39491;BME280;25175;50.140;18.990;2022-07-29T04:50:01;98663.94;;;16.67;53.99
39491;BME280;25175;50.140;18.990;2022-07-29T04:53:03;98668.19;;;16.68;53.91
39491;BME280;25175;50.140;18.990;2022-07-29T04:56:05;98663.78;;;16.73;53.94
39491;BME280;25175;50.140;18.990;2022-07-29T04:59:07;98663.53;;;16.75;53.95
39491;BME280;25175;50.140;18.990;2022-07-29T05:02:10;98669.97;;;16.79;53.77
39491;BME280;25175;50.140;18.990;2022-07-29T05:05:13;98663.97;;;16.83;53.86
39491;BME280;25175;50.140;18.990;2022-07-29T05:08:15;98668.78;;;16.87;54.01
39491;BME280;25175;50.140;18.990;2022-07-29T05:11:18;98666.69;;;16.88;53.88
39491;BME280;25175;50.140;18.990;2022-07-29T05:14:20;98671.63;;;16.97;53.96
39491;BME280;25175;50.140;18.990;2022-07-29T05:17:22;98670.41;;;17.04;53.88
39491;BME280;25175;50.140;18.990;2022-07-29T05:20:26;98668.91;;;17.08;53.75
39491;BME280;25175;50.140;18.990;2022-07-29T05:23:29;98672.47;;;17.13;53.79
39491;BME280;25175;50.140;18.990;2022-07-29T05:26:31;98671.72;;;17.18;53.98
39491;BME280;25175;50.140;18.990;2022-07-29T05:29:34;98670.91;;;17.17;54.00
39491;BME280;25175;50.140;18.990;2022-07-29T05:32:36;98673.09;;;17.20;54.39
39491;BME280;25175;50.140;18.990;2022-07-29T05:35:39;98676.53;;;17.21;54.43
39491;BME280;25175;50.140;18.990;2022-07-29T05:38:42;98674.78;;;17.26;54.37
39491;BME280;25175;50.140;18.990;2022-07-29T05:41:44;98673.81;;;17.32;54.40
39491;BME280;25175;50.140;18.990;2022-07-29T05:44:46;98665.97;;;17.37;54.44
39491;BME280;25175;50.140;18.990;2022-07-29T05:47:49;98672.94;;;17.43;54.55
39491;BME280;25175;50.140;18.990;2022-07-29T05:50:52;98664.88;;;17.50;54.40
39491;BME280;25175;50.140;18.990;2022-07-29T05:53:55;98669.53;;;17.59;54.36
39491;BME280;25175;50.140;18.990;2022-07-29T05:56:57;98666.72;;;17.66;54.46
39491;BME280;25175;50.140;18.990;2022-07-29T05:59:59;98668.13;;;17.73;54.78
39491;BME280;25175;50.140;18.990;2022-07-29T06:03:01;98663.00;;;17.83;54.88
39491;BME280;25175;50.140;18.990;2022-07-29T06:06:05;98663.94;;;17.94;55.12
39491;BME280;25175;50.140;18.990;2022-07-29T06:09:08;98664.66;;;18.06;55.18
39491;BME280;25175;50.140;18.990;2022-07-29T06:12:10;98660.84;;;18.18;55.16
39491;BME280;25175;50.140;18.990;2022-07-29T06:15:12;98656.78;;;18.32;55.06
39491;BME280;25175;50.140;18.990;2022-07-29T06:18:14;98660.38;;;18.43;55.00
39491;BME280;25175;50.140;18.990;2022-07-29T06:21:18;98662.88;;;18.54;55.00
39491;BME280;25175;50.140;18.990;2022-07-29T06:24:20;98674.75;;;18.68;54.43
39491;BME280;25175;50.140;18.990;2022-07-29T06:27:22;98664.78;;;18.80;54.31
39491;BME280;25175;50.140;18.990;2022-07-29T06:30:24;98670.75;;;18.92;54.16
39491;BME280;25175;50.140;18.990;2022-07-29T06:33:27;98662.38;;;19.05;54.52
39491;BME280;25175;50.140;18.990;2022-07-29T06:36:34;98667.31;;;19.18;54.00
39491;BME280;25175;50.140;18.990;2022-07-29T06:39:36;98669.78;;;19.30;53.77
39491;BME280;25175;50.140;18.990;2022-07-29T06:42:41;98663.00;;;19.44;53.88
39491;BME280;25175;50.140;18.990;2022-07-29T06:45:44;98666.03;;;19.57;53.69
39491;BME280;25175;50.140;18.990;2022-07-29T06:48:46;98667.19;;;19.66;53.29
39491;BME280;25175;50.140;18.990;2022-07-29T06:51:50;98672.53;;;19.76;53.29
39491;BME280;25175;50.140;18.990;2022-07-29T06:54:52;98672.88;;;19.85;53.13
39491;BME280;25175;50.140;18.990;2022-07-29T06:57:55;98687.84;;;19.96;53.04
39491;BME280;25175;50.140;18.990;2022-07-29T07:01:00;98672.78;;;20.06;53.25
39491;BME280;25175;50.140;18.990;2022-07-29T07:04:03;98673.63;;;20.17;53.19
39491;BME280;25175;50.140;18.990;2022-07-29T07:07:07;98668.09;;;20.28;52.74
39491;BME280;25175;50.140;18.990;2022-07-29T07:10:09;98659.59;;;20.36;52.62
39491;BME280;25175;50.140;18.990;2022-07-29T07:13:11;98662.31;;;20.46;52.91
39491;BME280;25175;50.140;18.990;2022-07-29T07:16:13;98665.56;;;20.58;52.46
39491;BME280;25175;50.140;18.990;2022-07-29T07:19:15;98656.03;;;20.72;53.23
39491;BME280;25175;50.140;18.990;2022-07-29T07:22:21;98674.72;;;20.92;53.18
39491;BME280;25175;50.140;18.990;2022-07-29T07:25:24;98670.75;;;21.05;51.90
39491;BME280;25175;50.140;18.990;2022-07-29T07:28:26;98658.50;;;21.14;51.96
39491;BME280;25175;50.140;18.990;2022-07-29T07:31:28;98673.47;;;21.25;51.88
39491;BME280;25175;50.140;18.990;2022-07-29T07:34:30;98657.25;;;21.31;50.98
39491;BME280;25175;50.140;18.990;2022-07-29T07:37:34;98666.81;;;21.32;51.17
39491;BME280;25175;50.140;18.990;2022-07-29T07:40:36;98667.59;;;21.38;51.49
39491;BME280;25175;50.140;18.990;2022-07-29T07:43:39;98660.16;;;21.40;50.88
39491;BME280;25175;50.140;18.990;2022-07-29T07:46:41;98659.34;;;21.44;51.74
39491;BME280;25175;50.140;18.990;2022-07-29T07:49:43;98664.13;;;21.57;51.68
39491;BME280;25175;50.140;18.990;2022-07-29T07:52:48;98667.31;;;21.69;51.28
39491;BME280;25175;50.140;18.990;2022-07-29T07:55:51;98663.59;;;21.85;51.41
39491;BME280;25175;50.140;18.990;2022-07-29T07:58:53;98661.97;;;21.99;50.88
39491;BME280;25175;50.140;18.990;2022-07-29T08:01:56;98655.00;;;22.13;51.28
39491;BME280;25175;50.140;18.990;2022-07-29T08:04:58;98653.34;;;22.32;51.02
39491;BME280;25175;50.140;18.990;2022-07-29T08:08:01;98658.09;;;22.40;50.40
39491;BME280;25175;50.140;18.990;2022-07-29T08:11:04;98656.25;;;22.41;49.71
39491;BME280;25175;50.140;18.990;2022-07-29T08:14:07;98655.97;;;22.42;49.93
39491;BME280;25175;50.140;18.990;2022-07-29T08:17:09;98657.28;;;22.50;49.65
39491;BME280;25175;50.140;18.990;2022-07-29T08:20:11;98652.19;;;22.58;50.05
39491;BME280;25175;50.140;18.990;2022-07-29T08:23:14;98652.91;;;22.74;50.31
39491;BME280;25175;50.140;18.990;2022-07-29T08:26:17;98656.28;;;22.89;49.63
39491;BME280;25175;50.140;18.990;2022-07-29T08:29:19;98651.09;;;23.03;49.36
39491;BME280;25175;50.140;18.990;2022-07-29T08:32:21;98658.56;;;23.11;48.48
39491;BME280;25175;50.140;18.990;2022-07-29T08:35:24;98652.59;;;23.24;49.04
39491;BME280;25175;50.140;18.990;2022-07-29T08:38:28;98645.25;;;23.39;48.61
39491;BME280;25175;50.140;18.990;2022-07-29T08:41:30;98651.59;;;23.48;47.93
39491;BME280;25175;50.140;18.990;2022-07-29T08:44:33;98656.91;;;23.53;47.76
39491;BME280;25175;50.140;18.990;2022-07-29T08:47:38;98656.28;;;23.61;48.34
39491;BME280;25175;50.140;18.990;2022-07-29T08:50:41;98646.78;;;23.79;47.81
39491;BME280;25175;50.140;18.990;2022-07-29T08:53:47;98656.53;;;23.93;47.31
39491;BME280;25175;50.140;18.990;2022-07-29T08:56:51;98651.03;;;24.08;47.68
39491;BME280;25175;50.140;18.990;2022-07-29T08:59:54;98646.88;;;24.21;47.45
39491;BME280;25175;50.140;18.990;2022-07-29T09:02:57;98637.34;;;24.33;46.92
39491;BME280;25175;50.140;18.990;2022-07-29T09:06:01;98643.13;;;24.45;46.26
39491;BME280;25175;50.140;18.990;2022-07-29T09:09:05;98645.28;;;24.43;46.21
39491;BME280;25175;50.140;18.990;2022-07-29T09:12:09;98642.31;;;24.45;45.88
39491;BME280;25175;50.140;18.990;2022-07-29T09:15:12;98651.31;;;24.54;46.09
39491;BME280;25175;50.140;18.990;2022-07-29T09:18:33;98648.78;;;24.62;46.42
39491;BME280;25175;50.140;18.990;2022-07-29T09:21:40;98652.13;;;24.73;46.38
39491;BME280;25175;50.140;18.990;2022-07-29T09:25:03;98646.69;;;24.78;45.95
39491;BME280;25175;50.140;18.990;2022-07-29T09:28:06;98650.81;;;24.89;45.39
39491;BME280;25175;50.140;18.990;2022-07-29T09:31:09;98640.78;;;24.99;45.57
39491;BME280;25175;50.140;18.990;2022-07-29T09:34:12;98647.09;;;25.08;44.79
39491;BME280;25175;50.140;18.990;2022-07-29T09:37:25;98629.81;;;25.14;45.43
39491;BME280;25175;50.140;18.990;2022-07-29T09:40:29;98630.88;;;25.32;46.17
39491;BME280;25175;50.140;18.990;2022-07-29T09:43:32;98625.41;;;25.55;44.50
39491;BME280;25175;50.140;18.990;2022-07-29T09:46:34;98627.81;;;25.70;44.07
39491;BME280;25175;50.140;18.990;2022-07-29T09:49:51;98616.91;;;25.80;43.82
39491;BME280;25175;50.140;18.990;2022-07-29T09:52:53;98619.41;;;25.90;43.55
39491;BME280;25175;50.140;18.990;2022-07-29T09:55:57;98612.75;;;26.01;43.27
39491;BME280;25175;50.140;18.990;2022-07-29T09:59:05;98614.44;;;26.11;43.47
39491;BME280;25175;50.140;18.990;2022-07-29T10:02:11;98615.94;;;26.17;43.10
39491;BME280;25175;50.140;18.990;2022-07-29T10:05:19;98607.97;;;26.25;42.98
39491;BME280;25175;50.140;18.990;2022-07-29T10:08:25;98614.34;;;26.29;43.40
39491;BME280;25175;50.140;18.990;2022-07-29T10:11:28;98601.41;;;26.31;42.64
39491;BME280;25175;50.140;18.990;2022-07-29T10:14:31;98596.13;;;26.26;42.64
39491;BME280;25175;50.140;18.990;2022-07-29T10:17:34;98601.50;;;26.26;42.89
39491;BME280;25175;50.140;18.990;2022-07-29T10:20:37;98597.13;;;26.30;42.50
39491;BME280;25175;50.140;18.990;2022-07-29T10:23:39;98596.53;;;26.33;42.28
39491;BME280;25175;50.140;18.990;2022-07-29T10:26:44;98611.19;;;26.27;43.17
39491;BME280;25175;50.140;18.990;2022-07-29T10:29:47;98609.88;;;26.38;43.22
39491;BME280;25175;50.140;18.990;2022-07-29T10:33:16;98606.34;;;26.51;43.40
39491;BME280;25175;50.140;18.990;2022-07-29T10:36:27;98612.19;;;26.67;42.85
39491;BME280;25175;50.140;18.990;2022-07-29T10:39:42;98601.25;;;26.77;42.55
39491;BME280;25175;50.140;18.990;2022-07-29T10:42:52;98601.72;;;26.79;41.32
39491;BME280;25175;50.140;18.990;2022-07-29T10:45:56;98600.75;;;26.75;41.66
39491;BME280;25175;50.140;18.990;2022-07-29T10:49:12;98599.94;;;26.74;41.66
39491;BME280;25175;50.140;18.990;2022-07-29T10:52:15;98591.50;;;26.67;41.41
39491;BME280;25175;50.140;18.990;2022-07-29T10:55:35;98595.19;;;26.71;41.63
39491;BME280;25175;50.140;18.990;2022-07-29T10:58:42;98593.97;;;26.77;41.39
39491;BME280;25175;50.140;18.990;2022-07-29T11:01:44;98593.53;;;26.84;41.01
39491;BME280;25175;50.140;18.990;2022-07-29T11:04:59;98581.91;;;26.88;41.28
39491;BME280;25175;50.140;18.990;2022-07-29T11:08:19;98594.13;;;26.94;41.00
39491;BME280;25175;50.140;18.990;2022-07-29T11:11:32;98586.34;;;26.93;40.82
39491;BME280;25175;50.140;18.990;2022-07-29T11:14:56;98592.25;;;26.81;40.94
39491;BME280;25175;50.140;18.990;2022-07-29T11:18:04;98596.56;;;26.82;41.66
39491;BME280;25175;50.140;18.990;2022-07-29T11:21:06;98588.50;;;26.82;41.10
39491;BME280;25175;50.140;18.990;2022-07-29T11:24:29;98583.81;;;26.74;41.31
39491;BME280;25175;50.140;18.990;2022-07-29T11:27:32;98592.88;;;26.78;40.67
39491;BME280;25175;50.140;18.990;2022-07-29T11:30:51;98584.69;;;26.83;40.81
39491;BME280;25175;50.140;18.990;2022-07-29T11:33:54;98590.56;;;26.85;40.77
39491;BME280;25175;50.140;18.990;2022-07-29T11:37:29;98581.03;;;26.79;40.96
39491;BME280;25175;50.140;18.990;2022-07-29T11:40:31;98581.81;;;26.80;40.80
39491;BME280;25175;50.140;18.990;2022-07-29T11:43:48;98580.44;;;26.82;41.58
39491;BME280;25175;50.140;18.990;2022-07-29T11:46:54;98573.81;;;26.88;41.56
39491;BME280;25175;50.140;18.990;2022-07-29T11:49:58;98570.28;;;27.01;40.90
39491;BME280;25175;50.140;18.990;2022-07-29T11:53:02;98572.97;;;27.01;41.18
39491;BME280;25175;50.140;18.990;2022-07-29T11:56:07;98575.81;;;27.05;40.90
39491;BME280;25175;50.140;18.990;2022-07-29T11:59:10;98565.44;;;27.12;41.56
39491;BME280;25175;50.140;18.990;2022-07-29T12:02:14;98573.25;;;27.22;41.07
39491;BME280;25175;50.140;18.990;2022-07-29T12:05:17;98563.25;;;27.36;41.24
39491;BME280;25175;50.140;18.990;2022-07-29T12:08:21;98560.44;;;27.41;39.97
39491;BME280;25175;50.140;18.990;2022-07-29T12:11:26;98555.22;;;27.44;40.02
39491;BME280;25175;50.140;18.990;2022-07-29T12:14:29;98561.56;;;27.48;41.04
39491;BME280;25175;50.140;18.990;2022-07-29T12:17:34;98562.38;;;27.57;39.73
39491;BME280;25175;50.140;18.990;2022-07-29T12:20:38;98559.09;;;27.60;39.34
39491;BME280;25175;50.140;18.990;2022-07-29T12:23:52;98562.13;;;27.67;39.41
39491;BME280;25175;50.140;18.990;2022-07-29T12:26:55;98561.53;;;27.70;39.46
39491;BME280;25175;50.140;18.990;2022-07-29T12:29:58;98559.16;;;27.77;39.23
39491;BME280;25175;50.140;18.990;2022-07-29T12:33:10;98553.69;;;27.91;39.47
39491;BME280;25175;50.140;18.990;2022-07-29T12:36:13;98560.06;;;27.95;38.54
39491;BME280;25175;50.140;18.990;2022-07-29T12:39:16;98557.47;;;27.81;38.21
39491;BME280;25175;50.140;18.990;2022-07-29T12:42:19;98561.69;;;27.74;37.83
39491;BME280;25175;50.140;18.990;2022-07-29T12:45:28;98549.78;;;27.66;38.39
39491;BME280;25175;50.140;18.990;2022-07-29T12:48:35;98559.44;;;27.67;38.41
39491;BME280;25175;50.140;18.990;2022-07-29T12:51:39;98559.91;;;27.69;38.41
39491;BME280;25175;50.140;18.990;2022-07-29T12:54:46;98547.56;;;27.68;37.54
39491;BME280;25175;50.140;18.990;2022-07-29T12:57:50;98545.16;;;27.67;37.31
39491;BME280;25175;50.140;18.990;2022-07-29T13:01:02;98534.56;;;27.62;37.62
39491;BME280;25175;50.140;18.990;2022-07-29T13:04:06;98539.56;;;27.55;37.27
39491;BME280;25175;50.140;18.990;2022-07-29T13:07:09;98543.22;;;27.50;38.05
39491;BME280;25175;50.140;18.990;2022-07-29T13:10:15;98535.44;;;27.49;38.38
39491;BME280;25175;50.140;18.990;2022-07-29T13:13:17;98529.44;;;27.52;38.40
39491;BME280;25175;50.140;18.990;2022-07-29T13:16:19;98533.59;;;27.58;38.54
39491;BME280;25175;50.140;18.990;2022-07-29T13:19:32;98533.91;;;27.65;38.51
39491;BME280;25175;50.140;18.990;2022-07-29T13:22:35;98528.72;;;27.68;37.90
39491;BME280;25175;50.140;18.990;2022-07-29T13:25:38;98523.19;;;27.73;37.28
39491;BME280;25175;50.140;18.990;2022-07-29T13:28:41;98513.28;;;27.82;37.89
39491;BME280;25175;50.140;18.990;2022-07-29T13:31:43;98506.13;;;27.86;37.42
39491;BME280;25175;50.140;18.990;2022-07-29T13:34:47;98505.81;;;27.88;37.37
39491;BME280;25175;50.140;18.990;2022-07-29T13:37:50;98511.06;;;27.93;36.70
39491;BME280;25175;50.140;18.990;2022-07-29T13:40:53;98490.78;;;27.95;37.29
39491;BME280;25175;50.140;18.990;2022-07-29T13:43:55;98489.69;;;27.96;37.10
39491;BME280;25175;50.140;18.990;2022-07-29T13:46:57;98483.53;;;28.04;37.21
39491;BME280;25175;50.140;18.990;2022-07-29T13:50:03;98467.69;;;28.11;36.72
39491;BME280;25175;50.140;18.990;2022-07-29T13:53:05;98464.03;;;28.16;37.04
39491;BME280;25175;50.140;18.990;2022-07-29T13:56:07;98464.19;;;28.19;36.42
39491;BME280;25175;50.140;18.990;2022-07-29T13:59:09;98464.19;;;28.19;36.65
39491;BME280;25175;50.140;18.990;2022-07-29T14:02:11;98456.28;;;28.23;36.64
39491;BME280;25175;50.140;18.990;2022-07-29T14:05:15;98465.16;;;28.32;37.25
39491;BME280;25175;50.140;18.990;2022-07-29T14:08:17;98451.38;;;28.42;36.71
39491;BME280;25175;50.140;18.990;2022-07-29T14:11:20;98441.41;;;28.51;36.44
39491;BME280;25175;50.140;18.990;2022-07-29T14:14:22;98442.19;;;28.51;36.16
39491;BME280;25175;50.140;18.990;2022-07-29T14:17:24;98441.06;;;28.52;36.53
39491;BME280;25175;50.140;18.990;2022-07-29T14:20:28;98439.97;;;28.53;37.04
39491;BME280;25175;50.140;18.990;2022-07-29T14:23:31;98439.47;;;28.60;36.29
39491;BME280;25175;50.140;18.990;2022-07-29T14:26:33;98438.06;;;28.54;36.40
39491;BME280;25175;50.140;18.990;2022-07-29T14:29:35;98442.97;;;28.52;35.77
39491;BME280;25175;50.140;18.990;2022-07-29T14:32:39;98433.31;;;28.51;36.51
39491;BME280;25175;50.140;18.990;2022-07-29T14:35:44;98439.81;;;28.58;35.95
39491;BME280;25175;50.140;18.990;2022-07-29T14:38:46;98426.94;;;28.55;35.96
39491;BME280;25175;50.140;18.990;2022-07-29T14:41:48;98428.06;;;28.54;36.15
39491;BME280;25175;50.140;18.990;2022-07-29T14:44:51;98423.44;;;28.63;36.60
39491;BME280;25175;50.140;18.990;2022-07-29T14:47:54;98427.75;;;28.64;36.42
39491;BME280;25175;50.140;18.990;2022-07-29T14:50:57;98419.50;;;28.69;36.24
39491;BME280;25175;50.140;18.990;2022-07-29T14:53:59;98420.41;;;28.73;35.85
39491;BME280;25175;50.140;18.990;2022-07-29T14:57:02;98429.47;;;28.69;35.36
39491;BME280;25175;50.140;18.990;2022-07-29T15:00:05;98426.47;;;28.62;35.00
39491;BME280;25175;50.140;18.990;2022-07-29T15:03:07;98431.22;;;28.65;35.37
39491;BME280;25175;50.140;18.990;2022-07-29T15:06:12;98422.97;;;28.61;36.09
39491;BME280;25175;50.140;18.990;2022-07-29T15:09:14;98430.28;;;28.52;35.68
39491;BME280;25175;50.140;18.990;2022-07-29T15:12:16;98440.28;;;28.43;36.30
39491;BME280;25175;50.140;18.990;2022-07-29T15:15:18;98444.56;;;28.44;36.53
39491;BME280;25175;50.140;18.990;2022-07-29T15:18:21;98446.97;;;28.37;35.66
39491;BME280;25175;50.140;18.990;2022-07-29T15:21:25;98456.91;;;28.28;36.07
39491;BME280;25175;50.140;18.990;2022-07-29T15:24:30;98455.19;;;28.24;35.62
39491;BME280;25175;50.140;18.990;2022-07-29T15:27:32;98471.66;;;28.14;35.86
39491;BME280;25175;50.140;18.990;2022-07-29T15:30:35;98480.84;;;28.04;35.88
39491;BME280;25175;50.140;18.990;2022-07-29T15:33:41;98473.34;;;27.93;35.97
39491;BME280;25175;50.140;18.990;2022-07-29T15:36:44;98477.97;;;27.84;36.32
39491;BME280;25175;50.140;18.990;2022-07-29T15:39:47;98476.63;;;27.73;36.28
39491;BME280;25175;50.140;18.990;2022-07-29T15:42:50;98473.88;;;27.64;36.48
39491;BME280;25175;50.140;18.990;2022-07-29T15:45:52;98470.22;;;27.52;36.67
39491;BME280;25175;50.140;18.990;2022-07-29T15:49:11;98472.25;;;27.46;37.10
39491;BME280;25175;50.140;18.990;2022-07-29T15:52:16;98473.03;;;27.38;37.46
39491;BME280;25175;50.140;18.990;2022-07-29T15:55:19;98464.63;;;27.31;37.32
39491;BME280;25175;50.140;18.990;2022-07-29T15:58:21;98477.03;;;27.19;37.47
39491;BME280;25175;50.140;18.990;2022-07-29T16:01:24;98477.47;;;27.12;38.06
39491;BME280;25175;50.140;18.990;2022-07-29T16:04:26;98488.16;;;27.04;38.96